createdAt,value
2022-07-30T00:02:21.155Z,99507.00
2022-07-30T00:04:49.851Z,99509.00
2022-07-30T00:07:18.361Z,99507.00
2022-07-30T00:09:47.180Z,99504.00
2022-07-30T00:12:16.273Z,99501.00
2022-07-30T00:14:45.043Z,99494.00
2022-07-30T00:17:13.800Z,99494.00
2022-07-30T00:19:44.995Z,99495.00
2022-07-30T00:22:13.810Z,99493.00
2022-07-30T00:24:42.572Z,99488.00
2022-07-30T00:27:11.915Z,99491.00
2022-07-30T00:29:44.917Z,99485.00
2022-07-30T00:32:13.108Z,99483.00
2022-07-30T00:34:41.736Z,99485.00
2022-07-30T00:37:11.058Z,99485.00
2022-07-30T00:39:39.684Z,99486.00
2022-07-30T00:42:08.642Z,99497.00
2022-07-30T00:44:36.640Z,99495.00
2022-07-30T00:47:09.306Z,99497.00
2022-07-30T00:49:41.400Z,99501.00
2022-07-30T00:52:13.588Z,99497.00
2022-07-30T00:54:42.288Z,99497.00
2022-07-30T00:57:10.458Z,99502.00
2022-07-30T00:59:38.419Z,99489.00
2022-07-30T01:02:06.764Z,99501.00
2022-07-30T01:04:34.795Z,99487.00
2022-07-30T01:07:03.078Z,99492.00
2022-07-30T01:09:32.687Z,99485.00
2022-07-30T01:12:00.968Z,99480.00
2022-07-30T01:14:29.325Z,99485.00
2022-07-30T01:16:57.845Z,99494.00
2022-07-30T01:19:52.178Z,99488.00
2022-07-30T01:22:40.802Z,99492.00
2022-07-30T01:25:21.461Z,99489.00
2022-07-30T01:27:58.062Z,99496.00
2022-07-30T01:30:30.830Z,99492.00
2022-07-30T01:33:01.010Z,99489.00
2022-07-30T01:35:32.129Z,99497.00
2022-07-30T01:38:03.715Z,99495.00
2022-07-30T01:40:33.459Z,99495.00
2022-07-30T01:43:04.573Z,99483.00
2022-07-30T01:45:41.428Z,99489.00
2022-07-30T01:48:14.893Z,99514.00
2022-07-30T01:50:47.073Z,99523.00
2022-07-30T01:53:18.737Z,99533.00
2022-07-30T01:55:48.447Z,99516.00
2022-07-30T01:58:23.469Z,99505.00
2022-07-30T02:00:58.333Z,99484.00
2022-07-30T02:03:29.615Z,99465.00
2022-07-30T02:06:03.387Z,99465.00
2022-07-30T02:08:41.413Z,99471.00
2022-07-30T02:11:13.032Z,99482.00
2022-07-30T02:13:51.548Z,99484.00
2022-07-30T02:16:28.548Z,99484.00
2022-07-30T02:19:06.729Z,99487.00
2022-07-30T02:21:49.601Z,99487.00
2022-07-30T02:24:30.506Z,99487.00
2022-07-30T02:27:04.333Z,99480.00
2022-07-30T02:29:37.781Z,99477.00
2022-07-30T02:32:11.813Z,99474.00
2022-07-30T02:34:44.701Z,99468.00
2022-07-30T02:37:16.550Z,99476.00
2022-07-30T02:39:44.970Z,99470.00
2022-07-30T02:42:16.968Z,99453.00
2022-07-30T02:44:54.595Z,99450.00
2022-07-30T02:47:26.600Z,99450.00
2022-07-30T02:50:09.649Z,99450.00
2022-07-30T02:52:43.258Z,99460.00
2022-07-30T02:55:14.537Z,99469.00
2022-07-30T02:57:44.574Z,99473.00
2022-07-30T03:00:15.356Z,99471.00
2022-07-30T03:02:47.083Z,99466.00
2022-07-30T03:05:16.891Z,99462.00
2022-07-30T03:07:46.244Z,99463.00
2022-07-30T03:10:15.678Z,99461.00
2022-07-30T03:12:47.389Z,99466.00
2022-07-30T03:15:17.472Z,99467.00
2022-07-30T03:17:51.447Z,99468.00
2022-07-30T03:20:24.298Z,99469.00
2022-07-30T03:22:54.715Z,99470.00
2022-07-30T03:25:27.249Z,99468.00
2022-07-30T03:27:59.244Z,99480.00
2022-07-30T03:30:30.798Z,99469.00
2022-07-30T03:33:00.008Z,99459.00
2022-07-30T03:35:31.095Z,99470.00
2022-07-30T03:38:01.749Z,99464.00
2022-07-30T03:40:31.048Z,99465.00
2022-07-30T03:43:01.097Z,99471.00
2022-07-30T03:45:32.053Z,99446.00
2022-07-30T03:48:10.151Z,99481.00
2022-07-30T03:50:41.995Z,99482.00
2022-07-30T03:53:11.280Z,99474.00
2022-07-30T03:56:00.124Z,99479.00
2022-07-30T03:58:54.328Z,99468.00
2022-07-30T04:01:27.546Z,99468.00
2022-07-30T04:04:09.031Z,99471.00
2022-07-30T04:06:40.414Z,99483.00
2022-07-30T04:09:09.162Z,99493.00
2022-07-30T04:11:40.814Z,99475.00
2022-07-30T04:14:12.037Z,99475.00
2022-07-30T04:16:52.772Z,99482.00
2022-07-30T04:19:30.688Z,99493.00
2022-07-30T04:22:01.953Z,99489.00
2022-07-30T04:24:33.219Z,99490.00
2022-07-30T04:27:03.538Z,99481.00
2022-07-30T04:29:32.236Z,99484.00
2022-07-30T04:32:02.378Z,99478.00
2022-07-30T04:35:09.875Z,99487.00
2022-07-30T04:38:02.612Z,99509.00
2022-07-30T04:40:32.326Z,99502.00
2022-07-30T04:43:00.322Z,99510.00
2022-07-30T04:45:28.529Z,99510.00
2022-07-30T04:48:00.693Z,99506.00
2022-07-30T04:50:46.572Z,99506.00
2022-07-30T04:53:19.710Z,99512.00
2022-07-30T04:56:00.602Z,99511.00
2022-07-30T04:58:32.721Z,99507.00
2022-07-30T05:01:03.297Z,99510.00
2022-07-30T05:03:37.535Z,99505.00
2022-07-30T05:06:07.584Z,99500.00
2022-07-30T05:08:40.566Z,99505.00
2022-07-30T05:11:13.482Z,99501.00
2022-07-30T05:13:46.358Z,99504.00
2022-07-30T05:16:16.317Z,99504.00
2022-07-30T05:18:46.521Z,99501.00
2022-07-30T05:21:14.570Z,99494.00
2022-07-30T05:23:50.101Z,99468.00
2022-07-30T05:26:37.503Z,99494.00
2022-07-30T05:29:07.277Z,99494.00
2022-07-30T05:31:46.364Z,99492.00
2022-07-30T05:34:16.202Z,99490.00
2022-07-30T05:36:46.257Z,99493.00
2022-07-30T05:39:17.178Z,99490.00
2022-07-30T05:41:53.766Z,99490.00
2022-07-30T05:44:28.353Z,99493.00
2022-07-30T05:46:56.693Z,99495.00
2022-07-30T05:49:26.679Z,99496.00
2022-07-30T05:52:01.135Z,99481.00
2022-07-30T05:54:29.928Z,99497.00
2022-07-30T05:57:16.554Z,99499.00
2022-07-30T05:59:45.069Z,99495.00
2022-07-30T06:02:24.462Z,99502.00
2022-07-30T06:05:22.517Z,99494.00
2022-07-30T06:07:50.904Z,99498.00
2022-07-30T06:10:22.171Z,99486.00
2022-07-30T06:12:50.059Z,99508.00
2022-07-30T06:15:26.065Z,99504.00
2022-07-30T06:17:58.214Z,99488.00
2022-07-30T06:20:46.790Z,99489.00
2022-07-30T06:23:24.540Z,99490.00
2022-07-30T06:26:11.577Z,99496.00
2022-07-30T06:28:39.918Z,99496.00
2022-07-30T06:31:18.701Z,99505.00
2022-07-30T06:33:47.451Z,99505.00
2022-07-30T06:36:17.446Z,99517.00
2022-07-30T06:39:00.076Z,99522.00
2022-07-30T06:41:45.489Z,99518.00
2022-07-30T06:44:15.408Z,99520.00
2022-07-30T06:47:07.572Z,99513.00
2022-07-30T06:49:37.625Z,99522.00
2022-07-30T06:52:08.389Z,99521.00
2022-07-30T06:54:37.107Z,99530.00
2022-07-30T06:57:17.936Z,99537.00
2022-07-30T06:59:56.999Z,99545.00
2022-07-30T07:02:42.624Z,99550.00
2022-07-30T07:05:13.985Z,99555.00
2022-07-30T07:07:58.159Z,99562.00
2022-07-30T07:10:30.722Z,99562.00
2022-07-30T07:13:25.808Z,99562.00
2022-07-30T07:15:53.856Z,99566.00
2022-07-30T07:18:23.674Z,99575.00
2022-07-30T07:20:56.156Z,99571.00
2022-07-30T07:23:25.522Z,99578.00
2022-07-30T07:26:08.807Z,99564.00
2022-07-30T07:28:36.880Z,99569.00
2022-07-30T07:31:05.031Z,99564.00
2022-07-30T07:33:33.501Z,99565.00
2022-07-30T07:36:02.000Z,99567.00
2022-07-30T07:38:34.924Z,99567.00
2022-07-30T07:41:03.017Z,99561.00
2022-07-30T07:43:32.168Z,99563.00
2022-07-30T07:46:01.821Z,99570.00
2022-07-30T07:48:32.838Z,99564.00
2022-07-30T07:51:46.898Z,99574.00
2022-07-30T07:54:21.533Z,99564.00
2022-07-30T07:56:51.604Z,99567.00
2022-07-30T07:59:21.180Z,99567.00
2022-07-30T08:01:50.645Z,99569.00
2022-07-30T08:04:38.019Z,99563.00
2022-07-30T08:07:11.500Z,99573.00
2022-07-30T08:10:17.491Z,99580.00
2022-07-30T08:13:49.271Z,99589.00
2022-07-30T08:16:17.809Z,99587.00
2022-07-30T08:19:04.446Z,99579.00
2022-07-30T08:21:36.178Z,99584.00
2022-07-30T08:24:05.836Z,99587.00
2022-07-30T08:26:35.119Z,99587.00
2022-07-30T08:29:03.234Z,99597.00
2022-07-30T08:31:31.155Z,99590.00
2022-07-30T08:33:59.115Z,99594.00
2022-07-30T08:36:27.882Z,99588.00
2022-07-30T08:38:55.924Z,99601.00
2022-07-30T08:41:24.917Z,99603.00
2022-07-30T08:43:56.755Z,99603.00
2022-07-30T08:46:30.337Z,99611.00
2022-07-30T08:49:26.890Z,99603.00
2022-07-30T08:51:56.318Z,99608.00
2022-07-30T08:54:42.258Z,99608.00
2022-07-30T08:57:10.960Z,99605.00
2022-07-30T08:59:52.953Z,99614.00
2022-07-30T09:02:32.581Z,99603.00
2022-07-30T09:05:11.662Z,99612.00
2022-07-30T09:07:40.200Z,99609.00
2022-07-30T09:10:14.536Z,99608.00
2022-07-30T09:12:45.324Z,99608.00
2022-07-30T09:15:19.353Z,99607.00
2022-07-30T09:17:54.200Z,99607.00
2022-07-30T09:20:25.829Z,99604.00
2022-07-30T09:22:57.918Z,99609.00
2022-07-30T09:25:48.032Z,99605.00
2022-07-30T09:28:39.135Z,99611.00
2022-07-30T09:31:18.378Z,99608.00
2022-07-30T09:34:05.355Z,99611.00
2022-07-30T09:37:19.723Z,99610.00
2022-07-30T09:40:14.569Z,99615.00
2022-07-30T09:43:07.532Z,99618.00
2022-07-30T09:45:36.955Z,99618.00
2022-07-30T09:48:23.564Z,99618.00
2022-07-30T09:50:52.885Z,99617.00
2022-07-30T09:53:23.309Z,99620.00
2022-07-30T09:55:51.976Z,99617.00
2022-07-30T09:58:27.423Z,99622.00
2022-07-30T10:01:00.446Z,99619.00
2022-07-30T10:04:02.710Z,99618.00
2022-07-30T10:06:58.912Z,99614.00
2022-07-30T10:09:37.775Z,99612.00
2022-07-30T10:12:11.533Z,99624.00
2022-07-30T10:14:48.209Z,99617.00
2022-07-30T10:17:20.666Z,99626.00
2022-07-30T10:20:15.342Z,99630.00
2022-07-30T10:23:08.216Z,99626.00
2022-07-30T10:25:49.481Z,99630.00
2022-07-30T10:28:39.481Z,99628.00
2022-07-30T10:31:48.412Z,99632.00
2022-07-30T10:33:58.237Z,99632.00
2022-07-30T10:36:30.388Z,99629.00
2022-07-30T10:38:59.753Z,99629.00
2022-07-30T10:41:48.559Z,99633.00
2022-07-30T10:45:00.790Z,99636.00
2022-07-30T10:47:34.400Z,99633.00
2022-07-30T10:50:14.142Z,99626.00
2022-07-30T10:52:50.462Z,99631.00
2022-07-30T10:55:20.905Z,99633.00
2022-07-30T10:58:08.936Z,99634.00
2022-07-30T11:01:01.942Z,99633.00
2022-07-30T11:03:41.357Z,99630.00
2022-07-30T11:06:28.078Z,99631.00
2022-07-30T11:08:57.134Z,99633.00
2022-07-30T11:12:15.888Z,99632.00
2022-07-30T11:14:58.688Z,99637.00
2022-07-30T11:18:04.515Z,99640.00
2022-07-30T11:20:34.338Z,99637.00
2022-07-30T11:23:40.531Z,99631.00
2022-07-30T11:26:14.381Z,99630.00
2022-07-30T11:28:46.218Z,99634.00
2022-07-30T11:31:56.626Z,99629.00
2022-07-30T11:34:31.035Z,99631.00
2022-07-30T11:37:18.312Z,99631.00
2022-07-30T11:40:11.464Z,99635.00
2022-07-30T11:42:42.530Z,99634.00
2022-07-30T11:45:27.020Z,99630.00
2022-07-30T11:47:59.817Z,99633.00
2022-07-30T11:50:32.525Z,99632.00
2022-07-30T11:53:03.621Z,99629.00
2022-07-30T11:55:34.270Z,99630.00
2022-07-30T11:58:05.997Z,99643.00
2022-07-30T12:00:40.429Z,99644.00
2022-07-30T12:03:11.566Z,99646.00
2022-07-30T12:05:41.914Z,99651.00
2022-07-30T12:08:35.406Z,99652.00
2022-07-30T12:11:02.010Z,99650.00
2022-07-30T12:13:45.144Z,99652.00
2022-07-30T12:16:17.447Z,99648.00
2022-07-30T12:18:47.094Z,99648.00
2022-07-30T12:21:17.061Z,99647.00
2022-07-30T12:23:56.440Z,99653.00
2022-07-30T12:26:27.185Z,99651.00
2022-07-30T12:28:56.983Z,99650.00
2022-07-30T12:31:25.203Z,99642.00
2022-07-30T12:33:53.345Z,99642.00
2022-07-30T12:36:34.281Z,99645.00
2022-07-30T12:39:06.577Z,99650.00
2022-07-30T12:41:46.249Z,99647.00
2022-07-30T12:44:36.870Z,99654.00
2022-07-30T12:47:06.393Z,99645.00
2022-07-30T12:49:39.596Z,99650.00
2022-07-30T12:52:29.439Z,99645.00
2022-07-30T12:55:02.345Z,99629.00
2022-07-30T12:57:57.208Z,99640.00
2022-07-30T13:00:27.110Z,99643.00
2022-07-30T13:02:56.114Z,99645.00
2022-07-30T13:05:49.764Z,99639.00
2022-07-30T13:08:19.668Z,99639.00
2022-07-30T13:10:59.761Z,99641.00
2022-07-30T13:13:27.852Z,99635.00
2022-07-30T13:16:01.288Z,99639.00
2022-07-30T13:18:30.803Z,99634.00
2022-07-30T13:20:59.449Z,99641.00
2022-07-30T13:23:29.859Z,99637.00
2022-07-30T13:25:58.814Z,99642.00
2022-07-30T13:28:27.950Z,99634.00
2022-07-30T13:30:57.896Z,99646.00
2022-07-30T13:33:25.941Z,99647.00
2022-07-30T13:35:54.428Z,99638.00
2022-07-30T13:38:22.404Z,99640.00
2022-07-30T13:40:51.937Z,99640.00
2022-07-30T13:43:21.661Z,99646.00
2022-07-30T13:45:50.891Z,99644.00
2022-07-30T13:48:19.656Z,99631.00
2022-07-30T13:50:47.736Z,99644.00
2022-07-30T13:53:16.094Z,99644.00
2022-07-30T13:55:45.628Z,99645.00
2022-07-30T13:58:15.508Z,99641.00
2022-07-30T14:00:45.151Z,99642.00
2022-07-30T14:03:13.416Z,99653.00
2022-07-30T14:05:42.717Z,99646.00
2022-07-30T14:08:12.824Z,99642.00
2022-07-30T14:10:41.403Z,99643.00
2022-07-30T14:13:19.006Z,99640.00
2022-07-30T14:15:50.710Z,99649.00
2022-07-30T14:18:18.655Z,99643.00
2022-07-30T14:20:48.824Z,99645.00
2022-07-30T14:23:17.518Z,99647.00
2022-07-30T14:25:45.867Z,99649.00
2022-07-30T14:28:15.332Z,99647.00
2022-07-30T14:30:43.833Z,99648.00
2022-07-30T14:33:13.334Z,99648.00
2022-07-30T14:35:41.268Z,99640.00
2022-07-30T14:38:09.257Z,99631.00
2022-07-30T14:40:37.276Z,99638.00
2022-07-30T14:43:05.239Z,99637.00
2022-07-30T14:45:36.448Z,99640.00
2022-07-30T14:48:05.001Z,99595.00
2022-07-30T14:50:42.699Z,99639.00
2022-07-30T14:53:22.671Z,99636.00
2022-07-30T14:55:50.856Z,99636.00
2022-07-30T14:58:18.795Z,99635.00
2022-07-30T15:00:49.031Z,99642.00
2022-07-30T15:03:17.830Z,99644.00
2022-07-30T15:05:52.091Z,99639.00
2022-07-30T15:08:20.513Z,99641.00
2022-07-30T15:10:48.493Z,99638.00
2022-07-30T15:13:16.537Z,99649.00
2022-07-30T15:15:46.021Z,99650.00
2022-07-30T15:18:14.211Z,99647.00
2022-07-30T15:20:42.182Z,99642.00
2022-07-30T15:23:13.499Z,99653.00
2022-07-30T15:25:42.132Z,99649.00
2022-07-30T15:28:10.487Z,99642.00
2022-07-30T15:30:38.566Z,99643.00
2022-07-30T15:33:06.492Z,99647.00
2022-07-30T15:35:36.675Z,99649.00
2022-07-30T15:38:05.255Z,99636.00
2022-07-30T15:40:34.767Z,99649.00
2022-07-30T15:43:05.050Z,99645.00
2022-07-30T15:45:55.434Z,99650.00
2022-07-30T15:48:27.278Z,99651.00
2022-07-30T15:51:01.979Z,99642.00
2022-07-30T15:53:31.089Z,99647.00
2022-07-30T15:56:01.491Z,99650.00
2022-07-30T15:58:29.560Z,99643.00
2022-07-30T16:00:57.971Z,99645.00
2022-07-30T16:03:26.109Z,99649.00
2022-07-30T16:05:54.393Z,99646.00
2022-07-30T16:08:22.802Z,99647.00
2022-07-30T16:10:51.935Z,99646.00
2022-07-30T16:13:21.392Z,99647.00
2022-07-30T16:15:49.540Z,99650.00
2022-07-30T16:18:17.620Z,99650.00
2022-07-30T16:20:45.619Z,99648.00
2022-07-30T16:23:18.174Z,99649.00
2022-07-30T16:25:48.962Z,99667.00
2022-07-30T16:28:17.066Z,99658.00
2022-07-30T16:30:51.118Z,99663.00
2022-07-30T16:33:20.427Z,99667.00
2022-07-30T16:35:48.862Z,99675.00
2022-07-30T16:38:18.852Z,99680.00
2022-07-30T16:40:47.724Z,99677.00
2022-07-30T16:43:16.233Z,99687.00
2022-07-30T16:45:46.165Z,99681.00
2022-07-30T16:48:14.705Z,99684.00
2022-07-30T16:50:43.633Z,99686.00
2022-07-30T16:53:14.438Z,99693.00
2022-07-30T16:55:43.259Z,99695.00
2022-07-30T16:58:11.382Z,99691.00
2022-07-30T17:00:39.953Z,99688.00
2022-07-30T17:03:09.842Z,99692.00
2022-07-30T17:05:45.195Z,99689.00
2022-07-30T17:08:13.769Z,99685.00
2022-07-30T17:10:42.271Z,99693.00
2022-07-30T17:13:12.082Z,99701.00
2022-07-30T17:15:40.455Z,99708.00
2022-07-30T17:18:09.794Z,99699.00
2022-07-30T17:20:38.154Z,99703.00
2022-07-30T17:23:07.714Z,99704.00
2022-07-30T17:25:36.047Z,99698.00
2022-07-30T17:28:04.375Z,99711.00
2022-07-30T17:30:32.698Z,99706.00
2022-07-30T17:33:00.757Z,99706.00
2022-07-30T17:35:30.251Z,99715.00
2022-07-30T17:38:02.230Z,99711.00
2022-07-30T17:40:31.803Z,99697.00
2022-07-30T17:43:04.691Z,99710.00
2022-07-30T17:45:34.453Z,99711.00
2022-07-30T17:48:02.653Z,99709.00
2022-07-30T17:50:33.526Z,99703.00
2022-07-30T17:53:03.617Z,99709.00
2022-07-30T17:55:32.059Z,99700.00
2022-07-30T17:58:00.053Z,99714.00
2022-07-30T18:00:28.248Z,99712.00
2022-07-30T18:02:56.192Z,99717.00
2022-07-30T18:05:24.374Z,99716.00
2022-07-30T18:07:53.674Z,99715.00
2022-07-30T18:10:21.917Z,99692.00
2022-07-30T18:12:51.147Z,99722.00
2022-07-30T18:15:20.429Z,99718.00
2022-07-30T18:17:48.479Z,99727.00
2022-07-30T18:20:16.835Z,99731.00
2022-07-30T18:22:44.974Z,99732.00
2022-07-30T18:25:18.079Z,99719.00
2022-07-30T18:27:48.031Z,99728.00
2022-07-30T18:30:16.710Z,99721.00
2022-07-30T18:32:45.671Z,99730.00
2022-07-30T18:35:15.233Z,99742.00
2022-07-30T18:37:44.841Z,99736.00
2022-07-30T18:40:23.707Z,99733.00
2022-07-30T18:42:53.358Z,99727.00
2022-07-30T18:45:22.751Z,99731.00
2022-07-30T18:47:50.800Z,99731.00
2022-07-30T18:50:19.517Z,99744.00
2022-07-30T18:52:47.617Z,99743.00
2022-07-30T18:55:18.493Z,99733.00
2022-07-30T18:57:46.501Z,99726.00
2022-07-30T19:00:34.595Z,99740.00
2022-07-30T19:03:04.223Z,99742.00
2022-07-30T19:05:32.634Z,99745.00
2022-07-30T19:08:00.699Z,99712.00
2022-07-30T19:10:30.177Z,99750.00
2022-07-30T19:12:58.514Z,99739.00
2022-07-30T19:15:28.370Z,99745.00
2022-07-30T19:17:56.618Z,99741.00
2022-07-30T19:20:26.471Z,99720.00
2022-07-30T19:23:02.661Z,99746.00
2022-07-30T19:25:34.159Z,99755.00
2022-07-30T19:28:03.030Z,99749.00
2022-07-30T19:30:32.309Z,99754.00
2022-07-30T19:33:04.932Z,99753.00
2022-07-30T19:35:33.333Z,99750.00
2022-07-30T19:38:01.703Z,99761.00
2022-07-30T19:40:32.775Z,99768.00
2022-07-30T19:43:09.303Z,99766.00
2022-07-30T19:45:47.270Z,99758.00
2022-07-30T19:48:29.272Z,99765.00
2022-07-30T19:51:15.738Z,99766.00
2022-07-30T19:53:49.440Z,99773.00
2022-07-30T19:56:19.479Z,99777.00
2022-07-30T19:58:47.766Z,99770.00
2022-07-30T20:01:16.147Z,99770.00
2022-07-30T20:03:45.846Z,99776.00
2022-07-30T20:06:16.164Z,99776.00
2022-07-30T20:08:45.201Z,99782.00
2022-07-30T20:11:21.085Z,99776.00
2022-07-30T20:14:04.058Z,99775.00
2022-07-30T20:16:32.209Z,99769.00
2022-07-30T20:19:00.455Z,99771.00
2022-07-30T20:21:56.871Z,99745.00
2022-07-30T20:24:20.180Z,99776.00
2022-07-30T20:26:49.292Z,99760.00
2022-07-30T20:29:20.652Z,99768.00
2022-07-30T20:31:50.135Z,99767.00
2022-07-30T20:34:23.418Z,99768.00
2022-07-30T20:36:52.504Z,99761.00
2022-07-30T20:39:22.041Z,99758.00
2022-07-30T20:41:50.139Z,99758.00
2022-07-30T20:44:23.593Z,99756.00
2022-07-30T20:46:52.653Z,99755.00
2022-07-30T20:49:29.014Z,99760.00
2022-07-30T20:52:04.528Z,99759.00
2022-07-30T20:54:33.883Z,99754.00
2022-07-30T20:57:03.941Z,99754.00
2022-07-30T20:59:35.574Z,99750.00
2022-07-30T21:02:04.237Z,99756.00
2022-07-30T21:04:32.950Z,99751.00
2022-07-30T21:07:04.262Z,99759.00
2022-07-30T21:09:49.904Z,99753.00
2022-07-30T21:12:32.548Z,99758.00
2022-07-30T21:15:02.456Z,99760.00
2022-07-30T21:17:30.992Z,99757.00
2022-07-30T21:20:01.155Z,99753.00
2022-07-30T21:22:29.344Z,99755.00
2022-07-30T21:24:57.389Z,99759.00
2022-07-30T21:27:29.786Z,99745.00
2022-07-30T21:29:58.318Z,99753.00
2022-07-30T21:32:29.321Z,99756.00
2022-07-30T21:34:57.526Z,99763.00
2022-07-30T21:37:36.427Z,99752.00
2022-07-30T21:40:06.999Z,99754.00
2022-07-30T21:42:36.986Z,99758.00
2022-07-30T21:45:17.127Z,99764.00
2022-07-30T21:47:47.605Z,99766.00
2022-07-30T21:50:16.649Z,99759.00
2022-07-30T21:52:44.918Z,99754.00
2022-07-30T21:55:13.609Z,99755.00
2022-07-30T21:57:42.175Z,99757.00
2022-07-30T22:00:21.853Z,99753.00
2022-07-30T22:02:53.043Z,99764.00
2022-07-30T22:05:23.587Z,99761.00
2022-07-30T22:08:07.715Z,99748.00
2022-07-30T22:10:36.136Z,99762.00
2022-07-30T22:13:04.781Z,99752.00
2022-07-30T22:15:33.808Z,99761.00
2022-07-30T22:18:04.586Z,99751.00
2022-07-30T22:20:33.469Z,99759.00
2022-07-30T22:23:05.320Z,99753.00
2022-07-30T22:25:39.833Z,99758.00
2022-07-30T22:28:12.616Z,99756.00
2022-07-30T22:30:42.215Z,99756.00
2022-07-30T22:33:15.317Z,99749.00
2022-07-30T22:35:46.783Z,99757.00
2022-07-30T22:38:19.435Z,99747.00
2022-07-30T22:40:48.326Z,99746.00
2022-07-30T22:43:17.603Z,99748.00
2022-07-30T22:45:48.750Z,99755.00
2022-07-30T22:48:26.597Z,99753.00
2022-07-30T22:50:56.422Z,99751.00
2022-07-30T22:54:02.617Z,99741.00
2022-07-30T22:56:15.994Z,99755.00
2022-07-30T22:58:45.047Z,99743.00
2022-07-30T23:01:16.746Z,99737.00
2022-07-30T23:03:48.070Z,99739.00
2022-07-30T23:06:16.482Z,99733.00
2022-07-30T23:08:44.631Z,99738.00
2022-07-30T23:11:12.676Z,99734.00
2022-07-30T23:13:41.758Z,99741.00
2022-07-30T23:16:10.023Z,99733.00
2022-07-30T23:18:38.234Z,99733.00
2022-07-30T23:21:07.652Z,99735.00
2022-07-30T23:23:36.252Z,99733.00
2022-07-30T23:26:04.777Z,99725.00
2022-07-30T23:28:33.388Z,99728.00
2022-07-30T23:31:03.165Z,99736.00
2022-07-30T23:33:31.966Z,99728.00
2022-07-30T23:36:01.079Z,99735.00
2022-07-30T23:38:30.606Z,99735.00
2022-07-30T23:41:01.235Z,99723.00
2022-07-30T23:43:29.291Z,99727.00
2022-07-30T23:45:57.427Z,99730.00
2022-07-30T23:48:25.647Z,99719.00
2022-07-30T23:50:53.939Z,99724.00
2022-07-30T23:53:22.005Z,99727.00
2022-07-30T23:55:52.416Z,99730.00
2022-07-30T23:58:20.732Z,99726.00
